Time;durP1;ratioP1;P1;durP2;ratioP2;P2;SDS_P1;SDS_P2;PMS_P1;PMS_P2;Temp;Humidity;BMP_temperature;BMP_pressure;BME280_temperature;BME280_humidity;BME280_pressure;Samples;Min_cycle;Max_cycle;Signal;HPM_P1;HPM_P2
2023/01/18 00:00:45;;;;;;;0.32;0.32;;;12.30;60.90;;;;;;4893372;29;20070;-93
2023/01/18 00:03:12;;;;;;;0.30;0.30;;;12.60;60.50;;;;;;4901918;29;20045;-91
2023/01/18 00:05:42;;;;;;;0.20;0.20;;;12.40;59.90;;;;;;4909422;29;20487;-92
2023/01/18 00:08:29;;;;;;;0.20;0.20;;;11.40;62.90;;;;;;4911956;29;20028;-91
2023/01/18 00:11:07;;;;;;;0.22;0.22;;;11.60;62.90;;;;;;4907676;29;20020;-92
2023/01/18 00:13:33;;;;;;;0.20;0.20;;;11.90;61.90;;;;;;4890965;29;20092;-91
2023/01/18 00:16:10;;;;;;;0.30;0.30;;;12.20;61.20;;;;;;4902425;29;20119;-95
2023/01/18 00:18:36;;;;;;;0.20;0.20;;;12.30;61.50;;;;;;4885817;29;20037;-92
2023/01/18 00:21:03;;;;;;;0.30;0.30;;;12.60;60.80;;;;;;4885529;29;20085;-96
2023/01/18 00:23:29;;;;;;;0.20;0.20;;;12.70;59.90;;;;;;4890956;29;20029;-91
2023/01/18 00:26:11;;;;;;;0.20;0.20;;;12.50;59.70;;;;;;4890034;29;20048;-91
2023/01/18 00:28:57;;;;;;;0.20;0.20;;;12.00;60.90;;;;;;4916835;29;20025;-91
2023/01/18 00:31:23;;;;;;;0.20;0.20;;;11.90;62.30;;;;;;4892920;29;20044;-91
2023/01/18 00:33:49;;;;;;;0.20;0.20;;;12.00;61.80;;;;;;4890697;29;20016;-91
2023/01/18 00:36:16;;;;;;;0.20;0.20;;;12.00;61.90;;;;;;4891827;29;20052;-92
2023/01/18 00:38:42;;;;;;;0.20;0.20;;;11.60;63.00;;;;;;4890025;29;20017;-91
2023/01/18 00:41:08;;;;;;;0.25;0.25;;;11.60;62.70;;;;;;4889263;29;20350;-91
2023/01/18 00:43:40;;;;;;;0.30;0.30;;;11.80;62.80;;;;;;4887614;29;20061;-91
2023/01/18 00:46:06;;;;;;;0.30;0.30;;;12.00;61.50;;;;;;4891641;29;20032;-94
2023/01/18 00:48:33;;;;;;;0.20;0.20;;;12.30;61.60;;;;;;4892597;29;20396;-96
2023/01/18 00:51:00;;;;;;;0.30;0.30;;;12.20;61.10;;;;;;4887473;29;20057;-91
2023/01/18 00:53:26;;;;;;;0.20;0.20;;;11.90;62.30;;;;;;4887372;29;20441;-92
2023/01/18 00:55:52;;;;;;;0.30;0.30;;;12.00;62.10;;;;;;4890053;29;20487;-91
2023/01/18 00:58:18;;;;;;;0.30;0.30;;;12.00;61.00;;;;;;4898079;29;20036;-91
2023/01/18 01:00:57;;;;;;;0.30;0.30;;;11.80;62.40;;;;;;4907912;29;20047;-93
2023/01/18 01:03:22;;;;;;;0.20;0.20;;;12.00;62.10;;;;;;4890862;29;20029;-92
2023/01/18 01:08:35;;;;;;;0.30;0.30;;;12.10;61.90;;;;;;4924169;29;20089;-96
2023/01/18 01:11:11;;;;;;;0.30;0.30;;;11.90;62.40;;;;;;4904885;29;20020;-92
2023/01/18 01:27:23;;;;;;;0.30;0.30;;;11.60;63.10;;;;;;4905134;29;20052;-91
2023/01/18 01:29:51;;;;;;;0.30;0.30;;;11.00;64.80;;;;;;4896170;29;20008;-93
2023/01/18 01:32:17;;;;;;;0.30;0.30;;;11.10;65.40;;;;;;4904744;29;20072;-91
2023/01/18 01:34:43;;;;;;;0.20;0.20;;;11.40;63.60;;;;;;4904617;29;20020;-91
2023/01/18 01:37:08;;;;;;;0.30;0.30;;;11.10;64.10;;;;;;4906254;29;20050;-90
2023/01/18 01:39:34;;;;;;;0.30;0.30;;;10.90;65.10;;;;;;4902829;29;20024;-90
2023/01/18 01:42:00;;;;;;;0.30;0.30;;;10.90;64.90;;;;;;4903649;29;20378;-90
2023/01/18 01:44:32;;;;;;;0.20;0.20;;;11.20;64.50;;;;;;4902156;29;20034;-95
2023/01/18 01:47:05;;;;;;;0.30;0.30;;;11.40;63.70;;;;;;4888083;29;20032;-94
2023/01/18 01:49:38;;;;;;;0.30;0.30;;;11.50;63.30;;;;;;4886561;29;20096;-96
2023/01/18 01:52:10;;;;;;;0.20;0.20;;;11.50;63.70;;;;;;4903029;29;20028;-91
2023/01/18 01:54:44;;;;;;;0.40;0.40;;;11.50;64.20;;;;;;4894059;29;20039;-92
2023/01/18 01:57:18;;;;;;;0.30;0.30;;;11.50;64.10;;;;;;4887752;29;20036;-92
2023/01/18 01:59:52;;;;;;;0.30;0.30;;;11.30;64.00;;;;;;4894087;29;20103;-92
2023/01/18 02:02:18;;;;;;;0.30;0.30;;;11.40;64.30;;;;;;4901290;29;20052;-92
2023/01/18 02:04:45;;;;;;;0.20;0.20;;;11.80;63.70;;;;;;4896580;29;20020;-96
2023/01/18 02:07:11;;;;;;;0.20;0.20;;;12.40;62.40;;;;;;4889039;29;20500;-95
2023/01/18 02:09:38;;;;;;;0.20;0.20;;;12.70;61.30;;;;;;4902317;29;20123;-89
2023/01/18 02:12:04;;;;;;;0.20;0.20;;;13.10;60.40;;;;;;4885891;29;20068;-90
2023/01/18 02:14:31;;;;;;;0.20;0.20;;;13.20;60.10;;;;;;4901637;29;20488;-94
2023/01/18 02:17:22;;;;;;;0.30;0.30;;;13.30;59.20;;;;;;4892285;29;20028;-94
2023/01/18 02:20:09;;;;;;;0.28;0.28;;;13.00;59.90;;;;;;4901045;29;20036;-91
2023/01/18 02:23:14;;;;;;;0.20;0.20;;;12.90;60.40;;;;;;4901086;29;20487;-91
2023/01/18 02:25:57;;;;;;;0.30;0.30;;;13.10;60.00;;;;;;4909293;29;20037;-96
2023/01/18 02:28:38;;;;;;;0.22;0.22;;;13.30;59.70;;;;;;4907804;29;20036;-92
2023/01/18 02:31:20;;;;;;;0.35;0.35;;;13.40;59.50;;;;;;4908166;29;20579;-96
2023/01/18 02:34:03;;;;;;;0.30;0.30;;;13.50;58.80;;;;;;4905864;29;20458;-91
2023/01/18 02:36:53;;;;;;;0.25;0.25;;;13.50;58.80;;;;;;4905701;29;20353;-91
2023/01/18 02:39:39;;;;;;;0.30;0.30;;;13.30;59.20;;;;;;4907163;29;20032;-91
2023/01/18 02:48:11;;;;;;;0.30;0.30;;;13.10;60.00;;;;;;4926335;29;20043;-96
2023/01/18 02:50:40;;;;;;;0.30;0.30;;;13.10;59.90;;;;;;4907703;29;20032;-91
2023/01/18 02:53:09;;;;;;;0.30;0.30;;;13.10;60.10;;;;;;4908477;29;20049;-91
2023/01/18 02:55:40;;;;;;;0.30;0.30;;;13.10;59.90;;;;;;4909256;29;20486;-91
2023/01/18 02:58:17;;;;;;;0.20;0.20;;;13.10;60.50;;;;;;4905007;29;20032;-92
2023/01/18 03:00:49;;;;;;;0.25;0.25;;;13.00;60.50;;;;;;4907196;29;20488;-96
2023/01/18 03:03:18;;;;;;;0.20;0.20;;;12.80;60.70;;;;;;4911463;29;20050;-92
2023/01/18 03:05:46;;;;;;;0.30;0.30;;;12.60;61.20;;;;;;4899732;29;20016;-92
2023/01/18 03:08:34;;;;;;;0.25;0.25;;;12.60;61.30;;;;;;4900260;29;20028;-92
2023/01/18 03:11:04;;;;;;;0.20;0.20;;;12.60;61.10;;;;;;4893803;29;20096;-95
2023/01/18 03:13:58;;;;;;;0.40;0.40;;;12.80;61.50;;;;;;4905438;29;20177;-96
2023/01/18 03:16:29;;;;;;;0.28;0.28;;;13.00;60.90;;;;;;4907042;29;20024;-91
2023/01/18 03:19:05;;;;;;;0.20;0.20;;;13.10;60.30;;;;;;4906008;29;20032;-91
2023/01/18 03:21:42;;;;;;;0.30;0.30;;;13.00;60.80;;;;;;4892031;29;20028;-94
2023/01/18 03:24:09;;;;;;;0.20;0.20;;;13.00;60.50;;;;;;4887017;29;20029;-91
2023/01/18 03:26:41;;;;;;;0.30;0.30;;;12.90;60.90;;;;;;4890950;29;20064;-90
2023/01/18 03:35:08;;;;;;;0.30;0.30;;;12.40;61.80;;;;;;4909920;29;20035;-95
2023/01/18 03:37:40;;;;;;;0.20;0.20;;;12.10;62.60;;;;;;4888666;29;20206;-96
2023/01/18 03:40:12;;;;;;;0.28;0.28;;;11.90;63.20;;;;;;4903485;29;20032;-90
2023/01/18 03:42:50;;;;;;;0.20;0.20;;;12.10;63.10;;;;;;4901939;29;20058;-92
2023/01/18 03:45:22;;;;;;;0.20;0.20;;;12.50;62.30;;;;;;4904162;29;20148;-92
2023/01/18 03:47:49;;;;;;;0.30;0.30;;;12.70;61.80;;;;;;4904363;29;20035;-92
2023/01/18 03:50:16;;;;;;;0.30;0.30;;;12.90;60.90;;;;;;4903258;29;20036;-93
2023/01/18 03:52:45;;;;;;;0.30;0.30;;;12.90;60.80;;;;;;4901642;29;20475;-91
2023/01/18 03:55:22;;;;;;;0.30;0.30;;;12.80;61.00;;;;;;4900130;29;20495;-91
2023/01/18 03:57:59;;;;;;;0.30;0.30;;;12.80;61.60;;;;;;4904264;29;20044;-96
2023/01/18 04:00:25;;;;;;;0.20;0.20;;;13.10;60.80;;;;;;4907024;29;20052;-90
2023/01/18 04:02:52;;;;;;;0.38;0.38;;;13.20;60.30;;;;;;4900815;29;20032;-91
2023/01/18 04:05:19;;;;;;;0.25;0.25;;;13.00;60.50;;;;;;4903038;29;20036;-90
2023/01/18 04:07:44;;;;;;;0.20;0.20;;;13.10;60.40;;;;;;4907431;29;20025;-91
2023/01/18 04:10:10;;;;;;;0.20;0.20;;;13.20;60.10;;;;;;4890255;29;20021;-90
2023/01/18 04:12:36;;;;;;;0.20;0.20;;;13.30;60.00;;;;;;4890179;29;20032;-90
2023/01/18 04:15:03;;;;;;;0.30;0.30;;;13.40;60.10;;;;;;4893263;29;20020;-91
2023/01/18 04:17:30;;;;;;;0.30;0.30;;;13.40;60.00;;;;;;4892420;29;20052;-91
2023/01/18 04:20:00;;;;;;;0.25;0.25;;;13.40;59.80;;;;;;4903990;29;20024;-91
2023/01/18 04:22:25;;;;;;;0.30;0.30;;;13.40;60.00;;;;;;4908431;29;20035;-91
2023/01/18 04:24:51;;;;;;;0.20;0.20;;;13.40;60.00;;;;;;4910020;29;20020;-92
2023/01/18 04:27:17;;;;;;;0.20;0.20;;;13.40;60.00;;;;;;4917824;29;20119;-91
2023/01/18 04:29:43;;;;;;;0.20;0.20;;;13.30;60.20;;;;;;4916608;29;20039;-90
2023/01/18 04:32:08;;;;;;;0.30;0.30;;;13.20;60.30;;;;;;4912093;29;20012;-91
2023/01/18 04:34:34;;;;;;;0.30;0.30;;;13.20;60.30;;;;;;4912728;29;20032;-91
2023/01/18 04:37:00;;;;;;;0.20;0.20;;;13.10;60.80;;;;;;4908622;29;20523;-94
2023/01/18 04:39:26;;;;;;;0.30;0.30;;;13.00;60.50;;;;;;4906441;29;20036;-89
2023/01/18 04:41:52;;;;;;;0.30;0.30;;;12.50;61.60;;;;;;4903162;29;20483;-92
2023/01/18 04:44:36;;;;;;;0.20;0.20;;;12.10;62.70;;;;;;4909485;29;20012;-90
2023/01/18 04:47:02;;;;;;;0.30;0.30;;;12.00;63.30;;;;;;4913232;29;20036;-91
2023/01/18 04:49:27;;;;;;;0.30;0.30;;;12.10;63.60;;;;;;4907243;29;20021;-90
2023/01/18 04:51:53;;;;;;;0.22;0.22;;;12.50;62.40;;;;;;4912998;29;20032;-90
2023/01/18 04:54:19;;;;;;;0.20;0.20;;;12.70;61.50;;;;;;4909510;29;20027;-90
2023/01/18 04:56:45;;;;;;;0.30;0.30;;;12.80;61.20;;;;;;4909800;29;20104;-90
2023/01/18 04:59:24;;;;;;;0.20;0.20;;;12.70;61.80;;;;;;4915275;29;20071;-96
2023/01/18 05:01:49;;;;;;;0.20;0.20;;;13.00;61.20;;;;;;4906309;29;20079;-96
2023/01/18 05:04:15;;;;;;;0.20;0.20;;;13.00;61.30;;;;;;4890661;29;20047;-91
2023/01/18 05:06:43;;;;;;;0.20;0.20;;;13.20;60.80;;;;;;4891032;29;20080;-95
2023/01/18 05:09:11;;;;;;;0.25;0.25;;;13.30;60.60;;;;;;4893585;29;20032;-92
2023/01/18 05:11:40;;;;;;;0.25;0.25;;;13.00;60.70;;;;;;4901217;29;20029;-93
2023/01/18 05:14:06;;;;;;;0.20;0.20;;;12.80;61.90;;;;;;4901777;29;20017;-92
2023/01/18 05:16:32;;;;;;;0.30;0.30;;;12.90;60.90;;;;;;4889060;29;20057;-96
2023/01/18 05:18:57;;;;;;;0.30;0.30;;;12.90;61.30;;;;;;4899956;29;20036;-93
2023/01/18 05:21:23;;;;;;;0.30;0.30;;;13.10;61.20;;;;;;4886503;29;20185;-92
2023/01/18 05:23:49;;;;;;;0.30;0.30;;;13.30;60.50;;;;;;4893308;29;20490;-92
2023/01/18 05:26:21;;;;;;;0.30;0.30;;;13.50;60.00;;;;;;4892099;29;20029;-93
2023/01/18 05:28:47;;;;;;;0.20;0.20;;;13.50;60.10;;;;;;4884604;29;20096;-90
2023/01/18 05:31:14;;;;;;;0.30;0.30;;;13.60;60.00;;;;;;4889956;29;20032;-92
2023/01/18 05:33:40;;;;;;;0.30;0.30;;;13.40;60.30;;;;;;4893314;29;20579;-90
2023/01/18 05:36:09;;;;;;;0.25;0.25;;;13.30;60.20;;;;;;4901968;29;20060;-91
2023/01/18 05:38:35;;;;;;;0.20;0.20;;;13.20;61.20;;;;;;4895281;29;20089;-93
2023/01/18 05:41:01;;;;;;;0.20;0.20;;;13.20;60.90;;;;;;4898322;29;20110;-92
2023/01/18 05:43:27;;;;;;;0.20;0.20;;;13.10;60.80;;;;;;4897857;29;20039;-93
2023/01/18 05:46:11;;;;;;;0.28;0.28;;;13.00;61.50;;;;;;4895383;29;20372;-91
2023/01/18 05:48:37;;;;;;;0.22;0.22;;;12.90;61.50;;;;;;4886216;29;20040;-92
2023/01/18 05:51:10;;;;;;;0.20;0.20;;;12.90;61.50;;;;;;4907943;29;20028;-96
2023/01/18 05:53:36;;;;;;;0.20;0.20;;;12.80;61.90;;;;;;4895358;29;20127;-92
2023/01/18 05:56:08;;;;;;;0.30;0.30;;;12.80;61.80;;;;;;4898426;29;20118;-93
2023/01/18 05:58:34;;;;;;;0.20;0.20;;;12.90;61.70;;;;;;4900267;29;20036;-94
2023/01/18 06:01:00;;;;;;;0.30;0.30;;;13.10;61.40;;;;;;4895300;29;20096;-94
2023/01/18 06:03:26;;;;;;;0.20;0.20;;;12.90;61.50;;;;;;4896308;29;20032;-94
2023/01/18 06:05:52;;;;;;;0.25;0.25;;;12.60;62.00;;;;;;4900987;29;20066;-95
2023/01/18 06:08:18;;;;;;;0.30;0.30;;;12.40;62.30;;;;;;4899917;29;20059;-94
2023/01/18 06:10:50;;;;;;;0.30;0.30;;;12.10;62.80;;;;;;4900575;29;20028;-93
2023/01/18 06:13:16;;;;;;;0.30;0.30;;;11.90;63.50;;;;;;4898685;29;20123;-92
2023/01/18 06:15:42;;;;;;;0.30;0.30;;;11.90;63.70;;;;;;4900495;29;20115;-95
2023/01/18 06:18:07;;;;;;;0.20;0.20;;;12.00;63.50;;;;;;4892946;29;20033;-92
2023/01/18 06:20:33;;;;;;;0.25;0.25;;;12.20;63.20;;;;;;4886262;29;20082;-89
2023/01/18 06:22:59;;;;;;;0.20;0.20;;;12.50;61.80;;;;;;4901785;29;20496;-93
2023/01/18 06:25:25;;;;;;;0.30;0.30;;;12.60;61.60;;;;;;4904690;29;20459;-90
2023/01/18 06:27:51;;;;;;;0.25;0.25;;;12.60;62.30;;;;;;4903675;29;20126;-95
2023/01/18 06:30:19;;;;;;;0.30;0.30;;;12.70;62.00;;;;;;4903968;29;20124;-88
2023/01/18 06:32:47;;;;;;;0.30;0.30;;;12.80;61.60;;;;;;4903285;29;20028;-95
2023/01/18 06:35:13;;;;;;;0.22;0.22;;;12.80;61.50;;;;;;4901377;29;20035;-89
2023/01/18 06:37:39;;;;;;;0.22;0.22;;;12.90;61.20;;;;;;4901922;29;20581;-95
2023/01/18 06:42:59;;;;;;;0.30;0.30;;;13.00;60.70;;;;;;4921707;29;20059;-92
2023/01/18 06:45:26;;;;;;;0.30;0.30;;;12.80;60.90;;;;;;4903193;29;20391;-94
2023/01/18 06:47:52;;;;;;;0.20;0.20;;;12.70;61.40;;;;;;4902857;29;20110;-94
2023/01/18 06:50:19;;;;;;;0.30;0.30;;;12.70;61.50;;;;;;4903821;29;20051;-94
2023/01/18 06:52:44;;;;;;;0.20;0.20;;;12.70;61.20;;;;;;4903407;29;20036;-92
2023/01/18 06:55:12;;;;;;;0.30;0.30;;;12.70;60.90;;;;;;4903456;29;20036;-94
2023/01/18 06:57:43;;;;;;;0.30;0.30;;;12.70;61.30;;;;;;4903144;29;20040;-93
2023/01/18 07:00:10;;;;;;;0.30;0.30;;;12.60;61.20;;;;;;4903424;29;20464;-95
2023/01/18 07:02:36;;;;;;;0.30;0.30;;;12.20;61.80;;;;;;4903084;29;20032;-91
2023/01/18 07:05:06;;;;;;;0.30;0.30;;;12.30;62.40;;;;;;4903466;29;20028;-93
2023/01/18 07:07:32;;;;;;;0.30;0.30;;;12.60;61.50;;;;;;4889559;29;20043;-89
2023/01/18 07:09:57;;;;;;;0.30;0.30;;;12.80;61.10;;;;;;4896172;29;20024;-90
2023/01/18 07:12:23;;;;;;;0.40;0.40;;;12.90;60.70;;;;;;4930779;29;20119;-92
2023/01/18 07:14:52;;;;;;;0.20;0.20;;;12.90;60.30;;;;;;4933804;29;20044;-90
2023/01/18 07:17:17;;;;;;;0.20;0.20;;;12.80;60.50;;;;;;4919229;29;20032;-90
2023/01/18 07:19:49;;;;;;;0.20;0.20;;;12.70;61.20;;;;;;4904880;29;20159;-94
2023/01/18 07:22:15;;;;;;;0.20;0.20;;;12.50;61.00;;;;;;4904274;29;20032;-94
2023/01/18 07:24:41;;;;;;;0.20;0.20;;;12.30;61.70;;;;;;4904411;29;20024;-91
2023/01/18 07:27:06;;;;;;;0.25;0.25;;;12.30;61.80;;;;;;4921109;29;20435;-92
2023/01/18 07:29:32;;;;;;;0.30;0.30;;;12.20;62.40;;;;;;4922011;29;20031;-91
2023/01/18 07:31:59;;;;;;;0.30;0.30;;;12.30;62.40;;;;;;4920444;29;20032;-90
2023/01/18 07:34:25;;;;;;;0.20;0.20;;;12.20;62.40;;;;;;4922438;29;20024;-92
2023/01/18 07:36:51;;;;;;;0.30;0.30;;;12.00;62.60;;;;;;4914660;29;20396;-94
2023/01/18 07:39:17;;;;;;;0.20;0.20;;;12.00;62.70;;;;;;4904572;29;20119;-89
2023/01/18 07:41:42;;;;;;;0.20;0.20;;;12.10;62.70;;;;;;4902631;29;20063;-92
2023/01/18 07:44:10;;;;;;;0.30;0.30;;;12.10;62.90;;;;;;4904029;29;20059;-93
2023/01/18 07:46:36;;;;;;;0.30;0.30;;;11.90;63.20;;;;;;4906839;29;20039;-87
2023/01/18 07:49:04;;;;;;;0.30;0.30;;;11.90;62.70;;;;;;4902318;29;20020;-89
2023/01/18 07:51:31;;;;;;;0.30;0.30;;;11.40;63.50;;;;;;4905873;29;20035;-90
2023/01/18 07:53:57;;;;;;;0.20;0.20;;;11.60;63.70;;;;;;4905988;29;20039;-85
2023/01/18 07:56:24;;;;;;;0.30;0.30;;;11.60;62.80;;;;;;4904874;29;20028;-86
2023/01/18 07:58:51;;;;;;;0.30;0.30;;;11.40;64.00;;;;;;4902340;29;20037;-89
2023/01/18 08:01:37;;;;;;;0.20;0.20;;;11.50;63.90;;;;;;4932511;29;20407;-92
2023/01/18 08:04:04;;;;;;;0.30;0.30;;;11.90;63.10;;;;;;4899732;29;20035;-90
2023/01/18 08:06:30;;;;;;;0.30;0.30;;;11.90;62.90;;;;;;4914167;29;20055;-90
2023/01/18 08:08:56;;;;;;;0.30;0.30;;;12.20;62.90;;;;;;4926352;29;20112;-89
2023/01/18 08:11:24;;;;;;;0.30;0.30;;;12.40;61.90;;;;;;4912765;29;20032;-94
2023/01/18 08:13:51;;;;;;;0.30;0.30;;;12.60;61.90;;;;;;4913643;29;20028;-94
2023/01/18 08:16:17;;;;;;;0.32;0.32;;;12.80;61.60;;;;;;4907815;29;20036;-95
2023/01/18 08:18:44;;;;;;;0.25;0.25;;;12.90;60.90;;;;;;4908861;29;20032;-94
2023/01/18 08:21:11;;;;;;;0.30;0.30;;;13.00;61.00;;;;;;4903612;29;20031;-89
2023/01/18 08:23:38;;;;;;;0.20;0.20;;;12.90;61.30;;;;;;4902381;29;20028;-87
2023/01/18 08:26:05;;;;;;;0.30;0.30;;;12.90;61.00;;;;;;4884668;29;20600;-88
2023/01/18 08:28:37;;;;;;;0.20;0.20;;;12.70;61.20;;;;;;4892008;29;20024;-91
2023/01/18 08:31:18;;;;;;;0.22;0.22;;;12.70;61.90;;;;;;4903783;29;20087;-85
2023/01/18 08:33:46;;;;;;;0.30;0.30;;;12.80;61.10;;;;;;4907985;29;20061;-88
2023/01/18 08:36:16;;;;;;;0.20;0.20;;;12.90;61.60;;;;;;4911679;29;20027;-88
2023/01/18 08:38:42;;;;;;;;;;;13.00;61.30;;;;;;4917721;29;20498;-85
2023/01/18 08:41:08;;;;;;;0.30;0.30;;;13.10;60.30;;;;;;4917288;29;19911;-92
2023/01/18 08:43:34;;;;;;;0.30;0.30;;;12.70;61.40;;;;;;4916569;29;20032;-85
2023/01/18 08:46:00;;;;;;;0.30;0.30;;;12.30;62.40;;;;;;4920656;29;20034;-85
2023/01/18 08:48:26;;;;;;;0.30;0.30;;;12.30;62.00;;;;;;4910285;29;20032;-83
2023/01/18 08:50:52;;;;;;;0.30;0.30;;;12.60;62.10;;;;;;4900894;29;20024;-88
2023/01/18 08:53:17;;;;;;;0.40;0.40;;;12.50;61.90;;;;;;4902231;29;20028;-87
2023/01/18 08:55:43;;;;;;;0.40;0.40;;;12.50;62.60;;;;;;4903575;29;20063;-88
2023/01/18 08:58:12;;;;;;;0.40;0.40;;;13.00;61.60;;;;;;4920278;29;20048;-90
2023/01/18 09:00:38;;;;;;;0.30;0.30;;;13.00;60.70;;;;;;4896725;29;20059;-94
2023/01/18 09:03:05;;;;;;;0.30;0.30;;;12.90;60.70;;;;;;4898103;29;20279;-91
2023/01/18 09:05:50;;;;;;;0.20;0.20;;;12.90;61.60;;;;;;4923597;29;20020;-96
2023/01/18 09:08:16;;;;;;;0.20;0.20;;;13.20;61.00;;;;;;4913402;29;20027;-93
2023/01/18 09:10:42;;;;;;;0.30;0.30;;;13.60;60.30;;;;;;4911207;29;20032;-96
2023/01/18 09:13:09;;;;;;;0.20;0.20;;;13.80;59.60;;;;;;4890314;29;20040;-90
2023/01/18 09:15:36;;;;;;;0.30;0.30;;;14.00;59.20;;;;;;4901886;29;20032;-91
2023/01/18 09:18:05;;;;;;;0.30;0.30;;;13.80;59.60;;;;;;4900422;29;20043;-90
2023/01/18 09:20:34;;;;;;;0.30;0.30;;;13.80;60.40;;;;;;4898908;29;20032;-91
2023/01/18 09:23:06;;;;;;;0.20;0.20;;;13.90;59.60;;;;;;4900441;29;20032;-87
2023/01/18 09:25:32;;;;;;;0.30;0.30;;;13.80;58.70;;;;;;4900286;29;20024;-90
2023/01/18 09:28:04;;;;;;;0.20;0.20;;;13.50;59.90;;;;;;4909599;29;20120;-94
2023/01/18 09:30:31;;;;;;;0.30;0.30;;;13.50;59.40;;;;;;4913551;29;20104;-96
2023/01/18 09:32:57;;;;;;;0.30;0.30;;;13.20;59.90;;;;;;4918295;29;20044;-91
2023/01/18 09:35:24;;;;;;;0.30;0.30;;;13.10;60.40;;;;;;4909744;29;20070;-96
2023/01/18 09:37:50;;;;;;;0.20;0.20;;;12.80;60.70;;;;;;4911917;29;20491;-94
2023/01/18 09:40:21;;;;;;;0.30;0.30;;;12.60;61.60;;;;;;4917502;29;20110;-93
2023/01/18 09:42:50;;;;;;;0.30;0.30;;;12.60;62.30;;;;;;4914313;29;20123;-96
2023/01/18 09:45:30;;;;;;;0.20;0.20;;;12.70;61.20;;;;;;4904346;29;20044;-96
2023/01/18 09:48:03;;;;;;;0.20;0.20;;;13.00;61.20;;;;;;4920955;29;20036;-94
2023/01/18 09:50:55;;;;;;;0.30;0.30;;;13.20;61.20;;;;;;4904175;29;20016;-96
2023/01/18 09:53:35;;;;;;;0.30;0.30;;;13.30;60.50;;;;;;4914633;29;20055;-95
2023/01/18 09:56:21;;;;;;;0.40;0.40;;;13.20;60.60;;;;;;4913441;29;20052;-96
2023/01/18 09:59:26;;;;;;;0.30;0.30;;;12.80;61.00;;;;;;4906076;29;20041;-88
2023/01/18 10:01:52;;;;;;;0.25;0.25;;;12.80;61.70;;;;;;4903910;29;20103;-88
2023/01/18 10:04:35;;;;;;;0.30;0.30;;;12.60;61.60;;;;;;4904552;29;20035;-90
2023/01/18 10:07:14;;;;;;;0.30;0.30;;;12.00;63.20;;;;;;4906076;29;20032;-83
2023/01/18 10:09:54;;;;;;;0.20;0.20;;;12.00;63.20;;;;;;4904738;29;20094;-90
2023/01/18 10:12:28;;;;;;;0.30;0.30;;;12.30;63.80;;;;;;4904115;29;20036;-90
2023/01/18 10:15:16;;;;;;;0.32;0.32;;;12.50;62.90;;;;;;4903721;29;20024;-89
2023/01/18 10:17:43;;;;;;;0.40;0.40;;;12.70;63.30;;;;;;4904179;29;20040;-88
2023/01/18 10:20:22;;;;;;;0.28;0.28;;;12.90;62.50;;;;;;4903757;29;20035;-88
2023/01/18 10:23:09;;;;;;;0.32;0.32;;;13.10;62.00;;;;;;4903987;29;20070;-90
2023/01/18 10:25:45;;;;;;;0.40;0.40;;;13.50;62.80;;;;;;4904016;29;20054;-90
2023/01/18 10:28:24;;;;;;;0.30;0.30;;;14.20;61.60;;;;;;4914539;29;20032;-96
2023/01/18 10:31:18;;;;;;;0.25;0.25;;;14.70;61.00;;;;;;4918905;29;20384;-96
2023/01/18 10:33:47;;;;;;;0.20;0.20;;;14.90;60.00;;;;;;4916690;29;20031;-95
2023/01/18 10:36:21;;;;;;;0.30;0.30;;;15.10;58.70;;;;;;4913885;29;20032;-96
2023/01/18 10:38:50;;;;;;;0.30;0.30;;;15.00;58.80;;;;;;4897050;29;20487;-95
2023/01/18 10:41:32;;;;;;;0.37;0.37;;;14.70;59.30;;;;;;4920691;29;20107;-96
2023/01/18 10:43:58;;;;;;;0.20;0.20;;;15.10;59.10;;;;;;4916446;29;20299;-96
2023/01/18 10:46:25;;;;;;;0.20;0.20;;;15.40;57.60;;;;;;4916349;29;20032;-95
2023/01/18 10:48:53;;;;;;;0.20;0.20;;;15.50;57.70;;;;;;4911671;29;20063;-94
2023/01/18 10:51:39;;;;;;;0.30;0.30;;;15.40;57.20;;;;;;4914129;29;20035;-96
2023/01/18 10:54:16;;;;;;;0.20;0.20;;;15.00;57.50;;;;;;4911392;29;20029;-94
2023/01/18 10:56:43;;;;;;;0.20;0.20;;;14.80;57.70;;;;;;4908994;29;20058;-96
2023/01/18 10:59:29;;;;;;;0.30;0.30;;;14.20;59.80;;;;;;4914084;29;20028;-96
2023/01/18 11:01:56;;;;;;;0.20;0.20;;;14.20;59.80;;;;;;4912936;29;20054;-94
2023/01/18 11:04:32;;;;;;;0.25;0.25;;;14.10;60.00;;;;;;4909652;29;20028;-96
2023/01/18 11:07:01;;;;;;;0.30;0.30;;;13.80;59.90;;;;;;4911561;29;20052;-94
2023/01/18 11:09:33;;;;;;;0.30;0.30;;;13.30;61.00;;;;;;4911021;29;20031;-96
2023/01/18 11:12:40;;;;;;;0.40;0.40;;;13.20;61.80;;;;;;4911903;29;20044;-95
2023/01/18 11:15:12;;;;;;;0.20;0.20;;;13.20;61.20;;;;;;4927883;29;20036;-95
2023/01/18 11:17:59;;;;;;;0.30;0.30;;;13.30;61.70;;;;;;4912194;29;20036;-93
2023/01/18 11:20:39;;;;;;;0.25;0.25;;;13.70;61.00;;;;;;4906690;29;20024;-93
2023/01/18 11:23:14;;;;;;;0.35;0.35;;;12.90;62.10;;;;;;4907619;29;20127;-94
2023/01/18 11:26:05;;;;;;;0.35;0.35;;;12.90;62.50;;;;;;4907521;29;20028;-96
2023/01/18 11:28:38;;;;;;;0.40;0.40;;;13.60;61.70;;;;;;4906009;29;20032;-95
2023/01/18 11:31:18;;;;;;;0.20;0.20;;;13.80;60.20;;;;;;4922451;29;20107;-93
2023/01/18 11:34:07;;;;;;;0.30;0.30;;;13.70;60.60;;;;;;4909040;29;20029;-96
2023/01/18 11:36:39;;;;;;;0.20;0.20;;;14.10;61.20;;;;;;4910100;29;20035;-95
2023/01/18 11:39:32;;;;;;;0.30;0.30;;;14.20;60.40;;;;;;4906514;29;20119;-93
2023/01/18 11:42:22;;;;;;;0.22;0.22;;;13.80;61.00;;;;;;4900736;29;20087;-92
2023/01/18 11:45:21;;;;;;;0.40;0.40;;;13.70;60.60;;;;;;4908894;29;20040;-94
2023/01/18 11:48:18;;;;;;;0.30;0.30;;;13.60;60.10;;;;;;4908813;29;20032;-96
2023/01/18 11:50:51;;;;;;;0.20;0.20;;;13.10;61.90;;;;;;4911560;29;20032;-94
2023/01/18 11:53:40;;;;;;;0.30;0.30;;;13.40;61.70;;;;;;4909339;29;20027;-94
2023/01/18 11:56:25;;;;;;;0.30;0.30;;;13.50;61.40;;;;;;4910518;29;20031;-92
2023/01/18 11:58:50;;;;;;;0.25;0.25;;;13.90;60.70;;;;;;4914986;29;20067;-96
2023/01/18 12:01:31;;;;;;;0.22;0.22;;;14.40;59.70;;;;;;4911406;29;20048;-96
2023/01/18 12:04:08;;;;;;;0.25;0.25;;;14.50;59.20;;;;;;4910023;29;20039;-95
2023/01/18 12:06:49;;;;;;;0.30;0.30;;;14.40;59.30;;;;;;4903420;29;20029;-94
2023/01/18 12:09:54;;;;;;;0.28;0.28;;;13.70;60.50;;;;;;4907646;29;20032;-95
2023/01/18 12:12:41;;;;;;;0.32;0.32;;;13.90;60.50;;;;;;4833202;29;20045;-96
2023/01/18 12:15:22;;;;;;;0.30;0.30;;;14.00;59.90;;;;;;4835305;29;20038;-95
2023/01/18 12:17:56;;;;;;;;;;;14.00;60.00;;;;;;4836065;29;20132;-96
2023/01/18 12:20:31;;;;;;;0.20;0.20;;;14.00;59.80;;;;;;4834936;29;20384;-96
2023/01/18 12:23:27;;;;;;;0.20;0.20;;;14.30;60.10;;;;;;4834807;29;20038;-96
2023/01/18 12:26:21;;;;;;;0.40;0.40;;;14.40;58.90;;;;;;4831040;29;20033;-94
2023/01/18 12:29:10;;;;;;;0.30;0.30;;;13.80;58.30;;;;;;4829007;29;20048;-87
2023/01/18 12:31:41;;;;;;;0.20;0.20;;;13.50;59.70;;;;;;4827857;29;20026;-87
2023/01/18 12:34:21;;;;;;;0.20;0.20;;;13.60;59.00;;;;;;4826677;29;20470;-86
2023/01/18 12:37:23;;;;;;;0.20;0.20;;;13.70;58.90;;;;;;4826273;29;20045;-87
2023/01/18 12:39:52;;;;;;;0.20;0.20;;;13.60;59.50;;;;;;4826471;29;20030;-86
2023/01/18 12:42:21;;;;;;;0.30;0.30;;;14.00;59.30;;;;;;4826452;29;20501;-85
2023/01/18 12:45:09;;;;;;;0.20;0.20;;;14.20;58.60;;;;;;4830119;29;20500;-91
2023/01/18 12:47:40;;;;;;;0.20;0.20;;;14.20;57.40;;;;;;4832336;29;20530;-95
2023/01/18 12:50:26;;;;;;;0.30;0.30;;;14.00;57.30;;;;;;4892101;29;20408;-93
2023/01/18 12:52:57;;;;;;;0.30;0.30;;;13.80;58.40;;;;;;4898118;29;20028;-91
2023/01/18 12:55:44;;;;;;;0.30;0.30;;;13.50;58.20;;;;;;4898382;29;20032;-93
2023/01/18 12:58:17;;;;;;;0.30;0.30;;;13.30;59.10;;;;;;4897779;29;20100;-92
2023/01/18 13:00:50;;;;;;;0.25;0.25;;;13.30;59.50;;;;;;4897838;29;20048;-94
2023/01/18 13:03:22;;;;;;;0.30;0.30;;;13.60;59.10;;;;;;4898003;29;20020;-94
2023/01/18 13:05:58;;;;;;;0.40;0.40;;;13.90;59.00;;;;;;4899380;29;20055;-96
2023/01/18 13:08:39;;;;;;;0.25;0.25;;;14.00;58.80;;;;;;4899037;29;20199;-95
2023/01/18 13:11:11;;;;;;;0.25;0.25;;;14.10;57.90;;;;;;4897896;29;20029;-94
2023/01/18 13:13:40;;;;;;;0.30;0.30;;;14.30;57.90;;;;;;4898909;29;20032;-94
2023/01/18 13:16:13;;;;;;;0.30;0.30;;;14.30;57.40;;;;;;4898505;29;20043;-89
2023/01/18 13:18:50;;;;;;;0.30;0.30;;;14.10;57.20;;;;;;4898410;29;20040;-91
2023/01/18 13:22:04;;;;;;;0.30;0.30;;;13.80;57.40;;;;;;4898736;29;20476;-95
2023/01/18 13:24:35;;;;;;;0.30;0.30;;;13.90;57.80;;;;;;4825994;29;20064;-95
2023/01/18 13:27:13;;;;;;;0.30;0.30;;;14.00;57.40;;;;;;4827250;29;20034;-96
2023/01/18 13:29:39;;;;;;;0.30;0.30;;;14.10;57.80;;;;;;4827612;29;20121;-96
2023/01/18 13:32:30;;;;;;;0.25;0.25;;;14.20;57.20;;;;;;4829662;29;20026;-95
2023/01/18 13:35:22;;;;;;;0.30;0.30;;;14.60;57.00;;;;;;4829626;29;20061;-95
2023/01/18 13:37:56;;;;;;;0.20;0.20;;;14.80;56.50;;;;;;4829591;29;20038;-95
2023/01/18 13:40:30;;;;;;;0.30;0.30;;;14.90;56.10;;;;;;4829850;29;20066;-92
2023/01/18 13:42:57;;;;;;;0.20;0.20;;;15.20;57.10;;;;;;4829955;29;20045;-96
2023/01/18 13:45:25;;;;;;;0.38;0.38;;;15.20;56.50;;;;;;4830555;29;20078;-94